Main page
METAR-TAF:

METAR-TAF

Airports :

Schwäbisch Hall, Germany

latitude: 49-07-06N, longitude: 9-47-02E, elevation: 398 m

Current weather observation

The report was made 38 minutes ago, at 11:20 UTC
Wind 17 kt from the West/Southwest with gusts up to 27 kt
Temperature 12°C
Humidity 58%
Pressure 1016 hPa
Visibility 10 km or more
Scattered clouds at a height of 3900 ft
Broken clouds at a height of 4600 ft

METAR: EDTY 221120Z 24017G27KT 9999 SCT039 BKN046 12/04 Q1016

Time: 13:58 (11:58 UTC)

Forecast

The report was made 58 minutes ago, at 11:00 UTC
Forecast valid from 22 at 12 UTC to 22 at 21 UTC
Wind 15 kt from the West/Southwest with gusts up to 25 kt
Visibility 10 km or more
Scattered clouds at a height of 2500 ft
Broken clouds at a height of 4000 ft
Becoming
from 22 at 14 UTC to 22 at 17 UTC
Wind 8 kt from the Southwest
Temporary
from 22 at 17 UTC to 22 at 21 UTC
Broken clouds at a height of 1400 ft
rain

TAF: EDTY 221100Z 2212/2221 24015G25KT 9999 SCT025 BKN040 BECMG 2214/2217 23008KT TEMPO 2217/2221 RA BKN014

Weather observations and forecasts of more than 4000 airports (METAR and TAF reports).

The available stations are represented by yellow and red dots on the map.

Hover mouse over dot to see the name of the station.

Then click to see weather observations and forecasts.

To change the map : click on the green buttons with a black cross to zoom in, on the green button with a dash to zoom out, or on the green arrows for adjacent maps.


METAR-TAF: